Granite Falls, North Carolina
Current Conditions -  °F | °C
As of 10:53 PM on Tuesday 21 Oct 2014 (Local Time) from KHKY Reporting Station
Clear Clear  
Wind Chill: 51°   Ceiling: Unl
Heat Index: 51°   Visibility: 10mi
Dew Point: 37°   Wind: 7mph
Humidity: 59%   Direction: 350°N
Pressure: 30.01"   Gusts: NA
Location:  35.8°N, 81.43°W
Report Text: KHKY 220253Z AUTO 35006KT 10SM CLR 11/03 A3001 RMK AO2 SLP148 T01060028 51015
Loading
Personal Weather Stations






























Interactive Weather Map
Tropical Storm Tracking
New forecast layout! Learn more

10-Day Weather Forecast

Advertisements
Track Severe Weather on mobile